OOCL Hamburg — VRZK9 — position and weather

sailwx.info

Track history (hours):
 
Tides and Currents Weather Stations Pressure Air Temp Water Temp Dewpoint Dewpoint Depression Visibility Wind Speed Wind Dir Waves Ship Positions

OOCL Hamburg

Last reported at 2014-Jul-17 16:12 UTC. Time now 2014-Jul-26 03:06 UTC.
Position N 01°10' E 103°48'.
Warning: this ship's position is 8 days out of date.

Length 323 m; beam 42.8 m; draft 14.5 m.

Type: Cargo ship. MMSI: 477702000.

Date/timePositionNaut miles runAvg speedWind from/ knotsBaromVisibWave heightAir tempDewpointWater temp
2014-Jul-17 16:12N 01°10' E 103°48'6 9.2
2014-Jul-17 15:32N 01°15' E 103°51'1 0.6
2014-Jul-17 14:27N 01°16' E 103°51'0 0.0
2014-Jul-17 13:30N 01°16' E 103°51'0 0.0
2014-Jul-17 11:24N 01°16' E 103°51'0 0.0
2014-Jul-17 09:09N 01°16' E 103°51'0 0.0
2014-Jul-17 08:27N 01°16' E 103°51'0 0.0
2014-Jul-17 07:27N 01°16' E 103°51'0 0.0
2014-Jul-17 05:15N 01°16' E 103°51'0 0.0
2014-Jul-17 04:09N 01°16' E 103°51'0 0.0
2014-Jul-17 03:33N 01°16' E 103°51'0 0.0
2014-Jul-17 02:27N 01°16' E 103°51'0 0.0
2014-Jul-17 00:33N 01°16' E 103°51'0 0.0
2014-Jul-16 23:33N 01°16' E 103°51'0 0.0
2014-Jul-16 22:33N 01°16' E 103°51'0 0.0
2014-Jul-16 21:27N 01°16' E 103°51'0 0.0
2014-Jul-16 20:24N 01°16' E 103°51'0 0.0
2014-Jul-16 19:33N 01°16' E 103°51'0 0.0
2014-Jul-16 18:30N 01°16' E 103°51'0 0.0
2014-Jul-16 17:33N 01°16' E 103°51'0 0.0
2014-Jul-16 16:33N 01°16' E 103°51'0 0.0
2014-Jul-16 15:27N 01°16' E 103°51'0 0.0
2014-Jul-16 14:33N 01°16' E 103°51'0 0.0
2014-Jul-16 13:33N 01°16' E 103°51'0 0.0
2014-Jul-16 12:27N 01°16' E 103°51'0 0.0
2014-Jul-16 11:30N 01°16' E 103°51'0 0.0
2014-Jul-16 10:33N 01°16' E 103°51'0 0.0
2014-Jul-16 09:33N 01°16' E 103°51'0 0.0
2014-Jul-16 08:33N 01°16' E 103°51'0 0.0
2014-Jul-16 07:33N 01°16' E 103°51'0 0.0
2014-Jul-16 06:30N 01°16' E 103°51'0 0.0
2014-Jul-16 05:33N 01°16' E 103°51'0 0.0
2014-Jul-16 04:33N 01°16' E 103°51'0 0.0
2014-Jul-16 03:33N 01°16' E 103°51'0 0.0
2014-Jul-16 02:33N 01°16' E 103°51'0 0.0
2014-Jul-16 01:33N 01°16' E 103°51'0 0.0
2014-Jul-16 00:33N 01°16' E 103°51'0 0.0
2014-Jul-15 23:33N 01°16' E 103°51'0 0.0
2014-Jul-15 22:33N 01°16' E 103°51'0 0.0
2014-Jul-15 21:33N 01°16' E 103°51'0 0.0
2014-Jul-15 20:33N 01°16' E 103°51'0 0.0
2014-Jul-15 19:33N 01°16' E 103°51'0 0.1
2014-Jul-15 18:33N 01°16' E 103°51'2 2.1
2014-Jul-15 17:33N 01°14' E 103°52'6 5.8
2014-Jul-15 16:33N 01°15' E 103°58'6 5.7
2014-Jul-15 15:33N 01°16' E 104°04'  
2014-Jul-12 07:26N 22°20' E 114°07'1 0.6
2014-Jul-12 06:33N 22°20' E 114°08'0 0.0
2014-Jul-12 05:30N 22°20' E 114°08'0 0.0
2014-Jul-12 04:30N 22°20' E 114°08'0 0.0
2014-Jul-12 03:30N 22°20' E 114°08'0 0.0
2014-Jul-12 00:30N 22°20' E 114°08'0 0.0
2014-Jul-11 23:30N 22°20' E 114°08'0 0.0
2014-Jul-11 22:30N 22°20' E 114°08'0 0.0
2014-Jul-11 19:18N 22°20' E 114°08'0 0.0
2014-Jul-11 18:18N 22°20' E 114°08'0 0.0
2014-Jul-11 17:24N 22°20' E 114°08'0 0.0
2014-Jul-11 16:30N 22°20' E 114°08'0 0.0
2014-Jul-11 15:24N 22°20' E 114°08'0 0.0
2014-Jul-11 14:24N 22°20' E 114°08'0 0.3
2014-Jul-11 13:25N 22°20' E 114°08'3 2.9
2014-Jul-11 12:31N 22°18' E 114°05'0 0.0
2014-Jul-11 11:29N 22°18' E 114°05'1 1.0
2014-Jul-11 10:30N 22°19' E 114°05'10 9.9
2014-Jul-11 09:32N 22°22' E 113°55'6 5.7
2014-Jul-11 08:33N 22°27' E 113°54'0 0.2
2014-Jul-11 07:33N 22°27' E 113°53'0 0.0
2014-Jul-11 06:33N 22°27' E 113°53'0 0.0
2014-Jul-11 05:30N 22°27' E 113°53'0 0.0
2014-Jul-11 04:33N 22°27' E 113°53'0 0.0
2014-Jul-11 03:33N 22°27' E 113°53'0 0.0
2014-Jul-11 02:33N 22°27' E 113°53'0 0.0
2014-Jul-11 01:33N 22°27' E 113°53'0 0.0
2014-Jul-11 00:33N 22°27' E 113°53'0 0.0
2014-Jul-10 23:33N 22°27' E 113°53'0 0.0
2014-Jul-10 22:27N 22°27' E 113°53'0 0.0
2014-Jul-10 21:30N 22°27' E 113°53'0 0.0
2014-Jul-10 20:33N 22°27' E 113°53'0 0.0
2014-Jul-10 19:33N 22°27' E 113°53'0 0.0
2014-Jul-10 18:33N 22°27' E 113°53'0 0.0
2014-Jul-10 17:33N 22°27' E 113°53'1 1.4
2014-Jul-10 16:33N 22°26' E 113°53'12 8.8
2014-Jul-10 15:12N 22°20' E 114°05'1311.5
2014-Jul-10 14:04N 22°10' E 114°13'16015.3
2014-Jul-10 03:33N 22°54' E 116°60'1615.7
2014-Jul-10 02:33N 23°05' E 117°12'4914.4
2014-Jul-09 23:08N 23°36' E 117°54'1113.6
2014-Jul-09 22:18N 23°42' E 118°04'1114.3
2014-Jul-09 21:33N 23°49' E 118°13'1413.8
2014-Jul-09 20:33N 23°57' E 118°25'1313.1
2014-Jul-09 19:33N 24°05' E 118°37'1414.0
2014-Jul-09 18:33N 24°14' E 118°49'1413.9
2014-Jul-09 17:33N 24°23' E 119°00'1413.9
2014-Jul-09 16:33N 24°31' E 119°13'1714.0
2014-Jul-09 15:22N 24°42' E 119°27'1713.9
2014-Jul-09 14:08N 24°53' E 119°41'813.8
2014-Jul-09 13:33N 25°00' E 119°45'6715.1
2014-Jul-09 09:08N 25°57' E 120°24'22214.9
2014-Jul-08 18:11N 29°10' E 122°28'1016.2
2014-Jul-08 17:33N 29°20' E 122°28'1616.3
2014-Jul-08 16:33N 29°36' E 122°27'1716.6
2014-Jul-08 15:34N 29°48' E 122°14'1111.1
2014-Jul-08 14:33N 29°46' E 122°02'1 1.2
2014-Jul-08 13:33N 29°46' E 122°00'0 0.0
2014-Jul-08 12:28N 29°46' E 122°00'0 0.0
2014-Jul-08 11:28N 29°46' E 122°00'0 0.0
2014-Jul-08 10:16N 29°46' E 122°00'0 0.0
2014-Jul-08 09:28N 29°46' E 122°00'0 0.0
2014-Jul-08 08:28N 29°46' E 122°00'0 0.0
2014-Jul-08 07:28N 29°46' E 122°00'0 0.0
2014-Jul-08 06:28N 29°46' E 122°00'0 0.0
2014-Jul-08 05:22N 29°46' E 122°00'0 0.0
2014-Jul-08 04:04N 29°46' E 122°00'0 0.0
2014-Jul-08 03:28N 29°46' E 122°00'0 0.0
2014-Jul-08 02:22N 29°46' E 122°00'0 0.0
2014-Jul-08 01:28N 29°46' E 122°00'0 0.0
2014-Jul-08 00:28N 29°46' E 122°00'0 0.0
2014-Jul-07 23:28N 29°46' E 122°00'0 0.0
2014-Jul-07 22:28N 29°46' E 122°00'0 0.0
2014-Jul-07 21:28N 29°46' E 122°00'0 0.0
2014-Jul-07 20:28N 29°46' E 122°00'0 0.0
2014-Jul-07 19:28N 29°46' E 122°00'0 0.0
2014-Jul-07 18:28N 29°46' E 122°00'0 0.0
2014-Jul-07 17:28N 29°46' E 122°00'0 0.2
2014-Jul-07 16:33N 29°46' E 122°00'  
Track history (hours):
 
Tides and Currents Weather Stations Pressure Air Temp Water Temp Dewpoint Dewpoint Depression Visibility Wind Speed Wind Dir Waves Ship Positions

OOCL Hamburg

Last reported at 2014-Jul-17 16:12 UTC. Time now 2014-Jul-26 03:06 UTC.
Position N 01°10' E 103°48'.
Warning: this ship's position is 8 days out of date.

Length 323 m; beam 42.8 m; draft 14.5 m.

Type: Cargo ship. MMSI: 477702000.

Date/timePositionNaut miles runAvg speedWind from/ knotsBaromVisibWave heightAir tempDewpointWater temp
2014-Jul-17 16:12N 01°10' E 103°48'6 9.2
2014-Jul-17 15:32N 01°15' E 103°51'1 0.6
2014-Jul-17 14:27N 01°16' E 103°51'0 0.0
2014-Jul-17 13:30N 01°16' E 103°51'0 0.0
2014-Jul-17 11:24N 01°16' E 103°51'0 0.0
2014-Jul-17 09:09N 01°16' E 103°51'0 0.0
2014-Jul-17 08:27N 01°16' E 103°51'0 0.0
2014-Jul-17 07:27N 01°16' E 103°51'0 0.0
2014-Jul-17 05:15N 01°16' E 103°51'0 0.0
2014-Jul-17 04:09N 01°16' E 103°51'0 0.0
2014-Jul-17 03:33N 01°16' E 103°51'0 0.0
2014-Jul-17 02:27N 01°16' E 103°51'0 0.0
2014-Jul-17 00:33N 01°16' E 103°51'0 0.0
2014-Jul-16 23:33N 01°16' E 103°51'0 0.0
2014-Jul-16 22:33N 01°16' E 103°51'0 0.0
2014-Jul-16 21:27N 01°16' E 103°51'0 0.0
2014-Jul-16 20:24N 01°16' E 103°51'0 0.0
2014-Jul-16 19:33N 01°16' E 103°51'0 0.0
2014-Jul-16 18:30N 01°16' E 103°51'0 0.0
2014-Jul-16 17:33N 01°16' E 103°51'0 0.0
2014-Jul-16 16:33N 01°16' E 103°51'0 0.0
2014-Jul-16 15:27N 01°16' E 103°51'0 0.0
2014-Jul-16 14:33N 01°16' E 103°51'0 0.0
2014-Jul-16 13:33N 01°16' E 103°51'0 0.0
2014-Jul-16 12:27N 01°16' E 103°51'0 0.0
2014-Jul-16 11:30N 01°16' E 103°51'0 0.0
2014-Jul-16 10:33N 01°16' E 103°51'0 0.0
2014-Jul-16 09:33N 01°16' E 103°51'0 0.0
2014-Jul-16 08:33N 01°16' E 103°51'0 0.0
2014-Jul-16 07:33N 01°16' E 103°51'0 0.0
2014-Jul-16 06:30N 01°16' E 103°51'0 0.0
2014-Jul-16 05:33N 01°16' E 103°51'0 0.0
2014-Jul-16 04:33N 01°16' E 103°51'0 0.0
2014-Jul-16 03:33N 01°16' E 103°51'0 0.0
2014-Jul-16 02:33N 01°16' E 103°51'0 0.0
2014-Jul-16 01:33N 01°16' E 103°51'0 0.0
2014-Jul-16 00:33N 01°16' E 103°51'0 0.0
2014-Jul-15 23:33N 01°16' E 103°51'0 0.0
2014-Jul-15 22:33N 01°16' E 103°51'0 0.0
2014-Jul-15 21:33N 01°16' E 103°51'0 0.0
2014-Jul-15 20:33N 01°16' E 103°51'0 0.0
2014-Jul-15 19:33N 01°16' E 103°51'0 0.1
2014-Jul-15 18:33N 01°16' E 103°51'2 2.1
2014-Jul-15 17:33N 01°14' E 103°52'6 5.8
2014-Jul-15 16:33N 01°15' E 103°58'6 5.7
2014-Jul-15 15:33N 01°16' E 104°04'  
2014-Jul-12 07:26N 22°20' E 114°07'1 0.6
2014-Jul-12 06:33N 22°20' E 114°08'0 0.0
2014-Jul-12 05:30N 22°20' E 114°08'0 0.0
2014-Jul-12 04:30N 22°20' E 114°08'0 0.0
2014-Jul-12 03:30N 22°20' E 114°08'0 0.0
2014-Jul-12 00:30N 22°20' E 114°08'0 0.0
2014-Jul-11 23:30N 22°20' E 114°08'0 0.0
2014-Jul-11 22:30N 22°20' E 114°08'0 0.0
2014-Jul-11 19:18N 22°20' E 114°08'0 0.0
2014-Jul-11 18:18N 22°20' E 114°08'0 0.0
2014-Jul-11 17:24N 22°20' E 114°08'0 0.0
2014-Jul-11 16:30N 22°20' E 114°08'0 0.0
2014-Jul-11 15:24N 22°20' E 114°08'0 0.0
2014-Jul-11 14:24N 22°20' E 114°08'0 0.3
2014-Jul-11 13:25N 22°20' E 114°08'3 2.9
2014-Jul-11 12:31N 22°18' E 114°05'0 0.0
2014-Jul-11 11:29N 22°18' E 114°05'1 1.0
2014-Jul-11 10:30N 22°19' E 114°05'10 9.9
2014-Jul-11 09:32N 22°22' E 113°55'6 5.7
2014-Jul-11 08:33N 22°27' E 113°54'0 0.2
2014-Jul-11 07:33N 22°27' E 113°53'0 0.0
2014-Jul-11 06:33N 22°27' E 113°53'0 0.0
2014-Jul-11 05:30N 22°27' E 113°53'0 0.0
2014-Jul-11 04:33N 22°27' E 113°53'0 0.0
2014-Jul-11 03:33N 22°27' E 113°53'0 0.0
2014-Jul-11 02:33N 22°27' E 113°53'0 0.0
2014-Jul-11 01:33N 22°27' E 113°53'0 0.0
2014-Jul-11 00:33N 22°27' E 113°53'0 0.0
2014-Jul-10 23:33N 22°27' E 113°53'0 0.0
2014-Jul-10 22:27N 22°27' E 113°53'0 0.0
2014-Jul-10 21:30N 22°27' E 113°53'0 0.0
2014-Jul-10 20:33N 22°27' E 113°53'0 0.0
2014-Jul-10 19:33N 22°27' E 113°53'0 0.0
2014-Jul-10 18:33N 22°27' E 113°53'0 0.0
2014-Jul-10 17:33N 22°27' E 113°53'1 1.4
2014-Jul-10 16:33N 22°26' E 113°53'12 8.8
2014-Jul-10 15:12N 22°20' E 114°05'1311.5
2014-Jul-10 14:04N 22°10' E 114°13'16015.3
2014-Jul-10 03:33N 22°54' E 116°60'1615.7
2014-Jul-10 02:33N 23°05' E 117°12'4914.4
2014-Jul-09 23:08N 23°36' E 117°54'1113.6
2014-Jul-09 22:18N 23°42' E 118°04'1114.3
2014-Jul-09 21:33N 23°49' E 118°13'1413.8
2014-Jul-09 20:33N 23°57' E 118°25'1313.1
2014-Jul-09 19:33N 24°05' E 118°37'1414.0
2014-Jul-09 18:33N 24°14' E 118°49'1413.9
2014-Jul-09 17:33N 24°23' E 119°00'1413.9
2014-Jul-09 16:33N 24°31' E 119°13'1714.0
2014-Jul-09 15:22N 24°42' E 119°27'1713.9
2014-Jul-09 14:08N 24°53' E 119°41'813.8
2014-Jul-09 13:33N 25°00' E 119°45'6715.1
2014-Jul-09 09:08N 25°57' E 120°24'22214.9
2014-Jul-08 18:11N 29°10' E 122°28'1016.2
2014-Jul-08 17:33N 29°20' E 122°28'1616.3
2014-Jul-08 16:33N 29°36' E 122°27'1716.6
2014-Jul-08 15:34N 29°48' E 122°14'1111.1
2014-Jul-08 14:33N 29°46' E 122°02'1 1.2
2014-Jul-08 13:33N 29°46' E 122°00'0 0.0
2014-Jul-08 12:28N 29°46' E 122°00'0 0.0
2014-Jul-08 11:28N 29°46' E 122°00'0 0.0
2014-Jul-08 10:16N 29°46' E 122°00'0 0.0
2014-Jul-08 09:28N 29°46' E 122°00'0 0.0
2014-Jul-08 08:28N 29°46' E 122°00'0 0.0
2014-Jul-08 07:28N 29°46' E 122°00'0 0.0
2014-Jul-08 06:28N 29°46' E 122°00'0 0.0
2014-Jul-08 05:22N 29°46' E 122°00'0 0.0
2014-Jul-08 04:04N 29°46' E 122°00'0 0.0
2014-Jul-08 03:28N 29°46' E 122°00'0 0.0
2014-Jul-08 02:22N 29°46' E 122°00'0 0.0
2014-Jul-08 01:28N 29°46' E 122°00'0 0.0
2014-Jul-08 00:28N 29°46' E 122°00'0 0.0
2014-Jul-07 23:28N 29°46' E 122°00'0 0.0
2014-Jul-07 22:28N 29°46' E 122°00'0 0.0
2014-Jul-07 21:28N 29°46' E 122°00'0 0.0
2014-Jul-07 20:28N 29°46' E 122°00'0 0.0
2014-Jul-07 19:28N 29°46' E 122°00'0 0.0
2014-Jul-07 18:28N 29°46' E 122°00'0 0.0
2014-Jul-07 17:28N 29°46' E 122°00'0 0.2
2014-Jul-07 16:33N 29°46' E 122°00'  

Dump ship's entire track history